sensor_id;sensor_type;location;lat;lon;timestamp;P1;durP1;ratioP1;P2;durP2;ratioP2
5827;SDS011;42583;50.240;8.444;2022-12-10T00:02:03;15.23;;;6.77;;
5827;SDS011;42583;50.240;8.444;2022-12-10T00:17:03;22.90;;;6.93;;
5827;SDS011;42583;50.240;8.444;2022-12-10T00:32:04;25.67;;;7.47;;
5827;SDS011;42583;50.240;8.444;2022-12-10T00:47:05;15.10;;;6.23;;
5827;SDS011;42583;50.240;8.444;2022-12-10T01:02:06;20.37;;;7.37;;
5827;SDS011;42583;50.240;8.444;2022-12-10T01:17:07;19.73;;;5.87;;
5827;SDS011;42583;50.240;8.444;2022-12-10T01:32:08;23.67;;;6.00;;
5827;SDS011;42583;50.240;8.444;2022-12-10T01:47:08;79.87;;;6.47;;
5827;SDS011;42583;50.240;8.444;2022-12-10T02:02:12;17.57;;;6.30;;
5827;SDS011;42583;50.240;8.444;2022-12-10T02:17:45;11.53;;;4.50;;
5827;SDS011;42583;50.240;8.444;2022-12-10T02:32:49;18.07;;;5.10;;
5827;SDS011;42583;50.240;8.444;2022-12-10T02:47:51;34.20;;;5.30;;
5827;SDS011;42583;50.240;8.444;2022-12-10T03:03:01;13.00;;;5.37;;
5827;SDS011;42583;50.240;8.444;2022-12-10T03:18:19;9.80;;;5.03;;
5827;SDS011;42583;50.240;8.444;2022-12-10T03:33:23;15.63;;;5.03;;
5827;SDS011;42583;50.240;8.444;2022-12-10T03:48:23;24.40;;;5.33;;
5827;SDS011;42583;50.240;8.444;2022-12-10T04:03:24;17.40;;;4.53;;
5827;SDS011;42583;50.240;8.444;2022-12-10T04:18:24;19.37;;;5.00;;
5827;SDS011;42583;50.240;8.444;2022-12-10T04:33:25;28.70;;;5.67;;
5827;SDS011;42583;50.240;8.444;2022-12-10T04:48:25;13.30;;;5.03;;
5827;SDS011;42583;50.240;8.444;2022-12-10T05:03:26;13.10;;;5.27;;
5827;SDS011;42583;50.240;8.444;2022-12-10T05:18:26;11.07;;;5.03;;
5827;SDS011;42583;50.240;8.444;2022-12-10T05:33:27;11.07;;;4.50;;
5827;SDS011;42583;50.240;8.444;2022-12-10T05:48:28;13.30;;;5.40;;
5827;SDS011;42583;50.240;8.444;2022-12-10T06:03:29;12.17;;;5.50;;
5827;SDS011;42583;50.240;8.444;2022-12-10T06:18:29;15.40;;;5.73;;
5827;SDS011;42583;50.240;8.444;2022-12-10T06:33:30;11.77;;;5.33;;
5827;SDS011;42583;50.240;8.444;2022-12-10T06:48:31;16.33;;;6.47;;
5827;SDS011;42583;50.240;8.444;2022-12-10T07:03:31;25.50;;;5.73;;
5827;SDS011;42583;50.240;8.444;2022-12-10T07:18:32;14.17;;;5.30;;
5827;SDS011;42583;50.240;8.444;2022-12-10T07:33:32;14.40;;;6.28;;
5827;SDS011;42583;50.240;8.444;2022-12-10T07:48:34;19.47;;;5.83;;
5827;SDS011;42583;50.240;8.444;2022-12-10T08:03:36;13.07;;;5.60;;
5827;SDS011;42583;50.240;8.444;2022-12-10T08:18:37;13.63;;;5.87;;
5827;SDS011;42583;50.240;8.444;2022-12-10T08:33:38;13.43;;;5.77;;
5827;SDS011;42583;50.240;8.444;2022-12-10T08:48:39;12.90;;;5.63;;
5827;SDS011;42583;50.240;8.444;2022-12-10T09:03:40;13.33;;;5.37;;
5827;SDS011;42583;50.240;8.444;2022-12-10T09:18:40;12.07;;;5.20;;
5827;SDS011;42583;50.240;8.444;2022-12-10T09:33:41;15.63;;;6.37;;
5827;SDS011;42583;50.240;8.444;2022-12-10T09:48:48;13.80;;;4.80;;
5827;SDS011;42583;50.240;8.444;2022-12-10T10:04:03;15.20;;;5.47;;
5827;SDS011;42583;50.240;8.444;2022-12-10T10:34:21;10.55;;;5.00;;
5827;SDS011;42583;50.240;8.444;2022-12-10T11:04:31;10.40;;;4.70;;
5827;SDS011;42583;50.240;8.444;2022-12-10T12:20:53;10.68;;;5.60;;
5827;SDS011;42583;50.240;8.444;2022-12-10T12:35:58;12.23;;;6.50;;
5827;SDS011;42583;50.240;8.444;2022-12-10T12:51:16;17.23;;;7.00;;
5827;SDS011;42583;50.240;8.444;2022-12-10T13:06:26;12.82;;;5.65;;
5827;SDS011;42583;50.240;8.444;2022-12-10T13:52:04;13.47;;;6.13;;
5827;SDS011;42583;50.240;8.444;2022-12-10T14:07:07;15.47;;;7.10;;
5827;SDS011;42583;50.240;8.444;2022-12-10T14:22:13;10.53;;;5.57;;
5827;SDS011;42583;50.240;8.444;2022-12-10T14:52:22;14.30;;;5.97;;
5827;SDS011;42583;50.240;8.444;2022-12-10T15:07:25;14.87;;;6.47;;
5827;SDS011;42583;50.240;8.444;2022-12-10T15:22:31;24.27;;;8.50;;
5827;SDS011;42583;50.240;8.444;2022-12-10T15:37:33;18.13;;;7.57;;
5827;SDS011;42583;50.240;8.444;2022-12-10T15:52:37;20.90;;;8.27;;
5827;SDS011;42583;50.240;8.444;2022-12-10T16:07:38;21.93;;;8.80;;
5827;SDS011;42583;50.240;8.444;2022-12-10T16:22:39;14.27;;;6.43;;
5827;SDS011;42583;50.240;8.444;2022-12-10T16:37:43;14.43;;;6.33;;
5827;SDS011;42583;50.240;8.444;2022-12-10T16:52:44;23.60;;;9.00;;
5827;SDS011;42583;50.240;8.444;2022-12-10T17:07:45;19.53;;;7.20;;
5827;SDS011;42583;50.240;8.444;2022-12-10T17:22:46;44.93;;;10.50;;
5827;SDS011;42583;50.240;8.444;2022-12-10T17:37:47;26.57;;;8.33;;
5827;SDS011;42583;50.240;8.444;2022-12-10T17:52:52;59.43;;;9.60;;
5827;SDS011;42583;50.240;8.444;2022-12-10T18:07:53;83.17;;;11.00;;
5827;SDS011;42583;50.240;8.444;2022-12-10T18:22:54;31.30;;;9.53;;
5827;SDS011;42583;50.240;8.444;2022-12-10T18:37:56;28.50;;;10.13;;
5827;SDS011;42583;50.240;8.444;2022-12-10T18:52:56;60.60;;;8.63;;
5827;SDS011;42583;50.240;8.444;2022-12-10T19:07:57;23.87;;;8.50;;
5827;SDS011;42583;50.240;8.444;2022-12-10T19:22:58;18.63;;;7.43;;
5827;SDS011;42583;50.240;8.444;2022-12-10T19:37:59;48.67;;;16.17;;
5827;SDS011;42583;50.240;8.444;2022-12-10T19:52:59;37.10;;;10.33;;
5827;SDS011;42583;50.240;8.444;2022-12-10T20:08:01;25.63;;;8.67;;
5827;SDS011;42583;50.240;8.444;2022-12-10T20:23:01;34.40;;;8.90;;
5827;SDS011;42583;50.240;8.444;2022-12-10T20:38:02;31.90;;;7.60;;
5827;SDS011;42583;50.240;8.444;2022-12-10T20:53:02;18.60;;;6.97;;
5827;SDS011;42583;50.240;8.444;2022-12-10T21:08:03;21.73;;;7.43;;
5827;SDS011;42583;50.240;8.444;2022-12-10T21:23:07;13.87;;;5.20;;
5827;SDS011;42583;50.240;8.444;2022-12-10T21:38:10;17.47;;;6.50;;
5827;SDS011;42583;50.240;8.444;2022-12-10T21:53:11;18.83;;;6.00;;
5827;SDS011;42583;50.240;8.444;2022-12-10T22:08:11;21.60;;;7.33;;
5827;SDS011;42583;50.240;8.444;2022-12-10T22:23:13;24.33;;;7.97;;
5827;SDS011;42583;50.240;8.444;2022-12-10T22:38:15;21.23;;;6.83;;
5827;SDS011;42583;50.240;8.444;2022-12-10T22:53:16;25.47;;;6.77;;
5827;SDS011;42583;50.240;8.444;2022-12-10T23:08:18;20.47;;;6.80;;
5827;SDS011;42583;50.240;8.444;2022-12-10T23:23:19;16.83;;;6.07;;
5827;SDS011;42583;50.240;8.444;2022-12-10T23:38:20;15.00;;;5.00;;
5827;SDS011;42583;50.240;8.444;2022-12-10T23:53:21;19.73;;;6.10;;
